sensor_id;sensor_type;location;lat;lon;timestamp;P1;durP1;ratioP1;P2;durP2;ratioP2
24273;SDS011;12392;42.678;23.380;2022-09-09T00:00:25;5.38;;;4.28;;
24273;SDS011;12392;42.678;23.380;2022-09-09T00:03:12;5.03;;;4.32;;
24273;SDS011;12392;42.678;23.380;2022-09-09T00:06:08;5.93;;;4.70;;
24273;SDS011;12392;42.678;23.380;2022-09-09T00:08:38;4.68;;;4.28;;
24273;SDS011;12392;42.678;23.380;2022-09-09T00:11:22;5.60;;;4.28;;
24273;SDS011;12392;42.678;23.380;2022-09-09T00:13:52;4.68;;;4.13;;
24273;SDS011;12392;42.678;23.380;2022-09-09T00:16:24;6.45;;;4.20;;
24273;SDS011;12392;42.678;23.380;2022-09-09T00:19:02;5.72;;;4.78;;
24273;SDS011;12392;42.678;23.380;2022-09-09T00:21:38;5.40;;;4.65;;
24273;SDS011;12392;42.678;23.380;2022-09-09T00:26:53;6.47;;;4.88;;
24273;SDS011;12392;42.678;23.380;2022-09-09T00:31:50;6.47;;;5.10;;
24273;SDS011;12392;42.678;23.380;2022-09-09T00:34:18;8.25;;;5.18;;
24273;SDS011;12392;42.678;23.380;2022-09-09T00:36:47;7.75;;;5.60;;
24273;SDS011;12392;42.678;23.380;2022-09-09T00:53:56;6.90;;;4.40;;
24273;SDS011;12392;42.678;23.380;2022-09-09T00:56:38;5.78;;;4.15;;
24273;SDS011;12392;42.678;23.380;2022-09-09T00:59:28;5.10;;;4.35;;
24273;SDS011;12392;42.678;23.380;2022-09-09T01:02:02;5.70;;;4.65;;
24273;SDS011;12392;42.678;23.380;2022-09-09T01:04:48;5.05;;;4.55;;
24273;SDS011;12392;42.678;23.380;2022-09-09T01:07:17;5.15;;;4.65;;
24273;SDS011;12392;42.678;23.380;2022-09-09T01:12:23;9.45;;;4.47;;
24273;SDS011;12392;42.678;23.380;2022-09-09T01:20:11;6.68;;;4.90;;
24273;SDS011;12392;42.678;23.380;2022-09-09T01:28:32;6.03;;;4.90;;
24273;SDS011;12392;42.678;23.380;2022-09-09T01:31:00;4.72;;;4.32;;
24273;SDS011;12392;42.678;23.380;2022-09-09T01:33:28;8.25;;;4.35;;
24273;SDS011;12392;42.678;23.380;2022-09-09T01:35:55;5.60;;;4.88;;
24273;SDS011;12392;42.678;23.380;2022-09-09T01:38:27;4.93;;;4.25;;
24273;SDS011;12392;42.678;23.380;2022-09-09T01:40:53;6.03;;;4.82;;
24273;SDS011;12392;42.678;23.380;2022-09-09T01:43:20;5.20;;;4.32;;
24273;SDS011;12392;42.678;23.380;2022-09-09T01:45:46;5.72;;;4.72;;
24273;SDS011;12392;42.678;23.380;2022-09-09T01:48:14;5.32;;;4.63;;
24273;SDS011;12392;42.678;23.380;2022-09-09T01:50:40;6.15;;;5.03;;
24273;SDS011;12392;42.678;23.380;2022-09-09T01:53:06;5.18;;;4.30;;
24273;SDS011;12392;42.678;23.380;2022-09-09T01:55:40;5.55;;;4.72;;
24273;SDS011;12392;42.678;23.380;2022-09-09T02:03:50;5.13;;;4.57;;
24273;SDS011;12392;42.678;23.380;2022-09-09T02:06:28;5.40;;;4.45;;
24273;SDS011;12392;42.678;23.380;2022-09-09T02:08:59;6.30;;;4.72;;
24273;SDS011;12392;42.678;23.380;2022-09-09T02:11:27;6.60;;;4.88;;
24273;SDS011;12392;42.678;23.380;2022-09-09T02:13:55;7.70;;;5.05;;
24273;SDS011;12392;42.678;23.380;2022-09-09T02:24:00;7.15;;;4.70;;
24273;SDS011;12392;42.678;23.380;2022-09-09T02:26:29;5.90;;;5.10;;
24273;SDS011;12392;42.678;23.380;2022-09-09T02:29:01;5.90;;;5.20;;
24273;SDS011;12392;42.678;23.380;2022-09-09T02:31:28;5.90;;;4.95;;
24273;SDS011;12392;42.678;23.380;2022-09-09T02:33:55;8.57;;;4.95;;
24273;SDS011;12392;42.678;23.380;2022-09-09T02:36:25;5.53;;;4.47;;
24273;SDS011;12392;42.678;23.380;2022-09-09T02:38:54;5.50;;;4.95;;
24273;SDS011;12392;42.678;23.380;2022-09-09T02:41:20;5.22;;;4.72;;
24273;SDS011;12392;42.678;23.380;2022-09-09T02:43:49;6.55;;;5.07;;
24273;SDS011;12392;42.678;23.380;2022-09-09T02:46:23;5.65;;;4.50;;
24273;SDS011;12392;42.678;23.380;2022-09-09T02:49:12;5.25;;;4.70;;
24273;SDS011;12392;42.678;23.380;2022-09-09T02:54:59;5.43;;;4.63;;
24273;SDS011;12392;42.678;23.380;2022-09-09T02:57:33;5.40;;;4.80;;
24273;SDS011;12392;42.678;23.380;2022-09-09T02:59:59;5.70;;;5.05;;
24273;SDS011;12392;42.678;23.380;2022-09-09T03:02:26;5.95;;;4.63;;
24273;SDS011;12392;42.678;23.380;2022-09-09T03:04:52;5.68;;;4.40;;
24273;SDS011;12392;42.678;23.380;2022-09-09T03:07:18;6.10;;;4.90;;
24273;SDS011;12392;42.678;23.380;2022-09-09T03:09:44;5.40;;;4.90;;
24273;SDS011;12392;42.678;23.380;2022-09-09T03:12:10;5.43;;;4.93;;
24273;SDS011;12392;42.678;23.380;2022-09-09T03:14:36;4.95;;;4.43;;
24273;SDS011;12392;42.678;23.380;2022-09-09T03:17:03;5.50;;;4.88;;
24273;SDS011;12392;42.678;23.380;2022-09-09T03:19:31;6.05;;;4.57;;
24273;SDS011;12392;42.678;23.380;2022-09-09T03:21:58;7.30;;;4.93;;
24273;SDS011;12392;42.678;23.380;2022-09-09T03:24:24;7.20;;;5.07;;
24273;SDS011;12392;42.678;23.380;2022-09-09T03:26:50;6.38;;;5.22;;
24273;SDS011;12392;42.678;23.380;2022-09-09T03:29:15;6.20;;;5.32;;
24273;SDS011;12392;42.678;23.380;2022-09-09T03:31:42;6.32;;;5.43;;
24273;SDS011;12392;42.678;23.380;2022-09-09T03:34:08;5.55;;;4.90;;
24273;SDS011;12392;42.678;23.380;2022-09-09T03:36:34;7.68;;;5.45;;
24273;SDS011;12392;42.678;23.380;2022-09-09T03:39:00;6.82;;;5.20;;
24273;SDS011;12392;42.678;23.380;2022-09-09T03:41:27;7.95;;;5.50;;
24273;SDS011;12392;42.678;23.380;2022-09-09T03:43:54;5.95;;;5.35;;
24273;SDS011;12392;42.678;23.380;2022-09-09T03:46:20;6.43;;;5.68;;
24273;SDS011;12392;42.678;23.380;2022-09-09T03:48:47;6.05;;;5.35;;
24273;SDS011;12392;42.678;23.380;2022-09-09T03:51:12;6.63;;;5.93;;
24273;SDS011;12392;42.678;23.380;2022-09-09T03:53:38;6.65;;;5.45;;
24273;SDS011;12392;42.678;23.380;2022-09-09T03:56:04;7.40;;;5.85;;
24273;SDS011;12392;42.678;23.380;2022-09-09T03:58:32;6.00;;;5.15;;
24273;SDS011;12392;42.678;23.380;2022-09-09T04:00:59;6.97;;;5.70;;
24273;SDS011;12392;42.678;23.380;2022-09-09T04:03:27;5.47;;;4.97;;
24273;SDS011;12392;42.678;23.380;2022-09-09T04:05:53;6.38;;;5.25;;
24273;SDS011;12392;42.678;23.380;2022-09-09T04:08:21;5.97;;;5.35;;
24273;SDS011;12392;42.678;23.380;2022-09-09T04:10:47;5.53;;;4.95;;
24273;SDS011;12392;42.678;23.380;2022-09-09T04:13:14;6.60;;;5.35;;
24273;SDS011;12392;42.678;23.380;2022-09-09T04:15:41;6.07;;;5.18;;
24273;SDS011;12392;42.678;23.380;2022-09-09T04:18:08;6.15;;;5.10;;
24273;SDS011;12392;42.678;23.380;2022-09-09T04:20:34;5.88;;;5.25;;
24273;SDS011;12392;42.678;23.380;2022-09-09T04:23:00;8.75;;;7.03;;
24273;SDS011;12392;42.678;23.380;2022-09-09T04:25:26;7.95;;;6.00;;
24273;SDS011;12392;42.678;23.380;2022-09-09T04:27:55;8.13;;;6.47;;
24273;SDS011;12392;42.678;23.380;2022-09-09T04:30:21;7.78;;;6.03;;
24273;SDS011;12392;42.678;23.380;2022-09-09T04:32:47;7.55;;;6.07;;
24273;SDS011;12392;42.678;23.380;2022-09-09T04:35:13;10.38;;;6.45;;
24273;SDS011;12392;42.678;23.380;2022-09-09T04:37:39;6.45;;;5.75;;
24273;SDS011;12392;42.678;23.380;2022-09-09T04:40:05;9.50;;;6.00;;
24273;SDS011;12392;42.678;23.380;2022-09-09T04:42:37;6.57;;;5.82;;
24273;SDS011;12392;42.678;23.380;2022-09-09T04:45:04;6.90;;;5.65;;
24273;SDS011;12392;42.678;23.380;2022-09-09T04:47:31;8.07;;;5.45;;
24273;SDS011;12392;42.678;23.380;2022-09-09T04:49:58;7.68;;;6.05;;
24273;SDS011;12392;42.678;23.380;2022-09-09T04:52:24;6.82;;;5.63;;
24273;SDS011;12392;42.678;23.380;2022-09-09T04:54:49;6.43;;;5.85;;
24273;SDS011;12392;42.678;23.380;2022-09-09T04:57:15;9.15;;;6.30;;
24273;SDS011;12392;42.678;23.380;2022-09-09T04:59:40;6.82;;;5.40;;
24273;SDS011;12392;42.678;23.380;2022-09-09T05:02:06;7.13;;;5.40;;
24273;SDS011;12392;42.678;23.380;2022-09-09T05:04:32;6.30;;;5.40;;
24273;SDS011;12392;42.678;23.380;2022-09-09T05:06:58;6.10;;;5.50;;
24273;SDS011;12392;42.678;23.380;2022-09-09T05:09:24;7.63;;;5.20;;
24273;SDS011;12392;42.678;23.380;2022-09-09T05:11:50;7.88;;;5.05;;
24273;SDS011;12392;42.678;23.380;2022-09-09T05:14:16;5.28;;;4.45;;
24273;SDS011;12392;42.678;23.380;2022-09-09T05:16:42;6.18;;;4.68;;
24273;SDS011;12392;42.678;23.380;2022-09-09T05:19:09;8.07;;;4.75;;
24273;SDS011;12392;42.678;23.380;2022-09-09T05:21:35;4.88;;;4.38;;
24273;SDS011;12392;42.678;23.380;2022-09-09T05:24:01;7.10;;;4.65;;
24273;SDS011;12392;42.678;23.380;2022-09-09T05:26:27;5.47;;;4.63;;
24273;SDS011;12392;42.678;23.380;2022-09-09T05:28:54;7.25;;;4.95;;
24273;SDS011;12392;42.678;23.380;2022-09-09T05:31:20;8.00;;;5.20;;
24273;SDS011;12392;42.678;23.380;2022-09-09T05:33:46;6.13;;;5.28;;
24273;SDS011;12392;42.678;23.380;2022-09-09T05:36:14;7.90;;;5.70;;
24273;SDS011;12392;42.678;23.380;2022-09-09T05:38:41;7.50;;;5.47;;
24273;SDS011;12392;42.678;23.380;2022-09-09T05:41:08;6.93;;;6.18;;
24273;SDS011;12392;42.678;23.380;2022-09-09T05:43:36;10.75;;;5.20;;
24273;SDS011;12392;42.678;23.380;2022-09-09T05:46:03;6.65;;;5.30;;
24273;SDS011;12392;42.678;23.380;2022-09-09T05:48:34;11.20;;;5.35;;
24273;SDS011;12392;42.678;23.380;2022-09-09T05:51:05;6.68;;;4.80;;
24273;SDS011;12392;42.678;23.380;2022-09-09T05:53:35;4.75;;;4.35;;
24273;SDS011;12392;42.678;23.380;2022-09-09T05:56:02;4.45;;;3.60;;
24273;SDS011;12392;42.678;23.380;2022-09-09T05:58:32;4.68;;;3.63;;
24273;SDS011;12392;42.678;23.380;2022-09-09T06:03:27;4.25;;;3.13;;
24273;SDS011;12392;42.678;23.380;2022-09-09T06:05:57;4.45;;;3.50;;
24273;SDS011;12392;42.678;23.380;2022-09-09T06:08:23;3.33;;;2.95;;
24273;SDS011;12392;42.678;23.380;2022-09-09T06:10:49;3.22;;;2.92;;
24273;SDS011;12392;42.678;23.380;2022-09-09T06:13:15;3.17;;;2.75;;
24273;SDS011;12392;42.678;23.380;2022-09-09T06:15:48;5.13;;;4.32;;
24273;SDS011;12392;42.678;23.380;2022-09-09T06:18:18;3.83;;;3.22;;
24273;SDS011;12392;42.678;23.380;2022-09-09T06:20:57;4.00;;;3.28;;
24273;SDS011;12392;42.678;23.380;2022-09-09T06:23:28;3.42;;;3.13;;
24273;SDS011;12392;42.678;23.380;2022-09-09T06:26:01;4.13;;;2.53;;
24273;SDS011;12392;42.678;23.380;2022-09-09T06:28:31;3.30;;;2.83;;
24273;SDS011;12392;42.678;23.380;2022-09-09T06:31:04;3.55;;;2.40;;
24273;SDS011;12392;42.678;23.380;2022-09-09T06:33:31;3.28;;;2.80;;
24273;SDS011;12392;42.678;23.380;2022-09-09T06:36:00;4.97;;;2.83;;
24273;SDS011;12392;42.678;23.380;2022-09-09T06:38:26;2.90;;;2.55;;
24273;SDS011;12392;42.678;23.380;2022-09-09T06:40:56;2.67;;;2.42;;
24273;SDS011;12392;42.678;23.380;2022-09-09T06:43:23;2.97;;;2.67;;
24273;SDS011;12392;42.678;23.380;2022-09-09T06:45:59;3.53;;;2.88;;
24273;SDS011;12392;42.678;23.380;2022-09-09T06:48:33;3.28;;;2.72;;
24273;SDS011;12392;42.678;23.380;2022-09-09T06:51:06;8.05;;;3.67;;
24273;SDS011;12392;42.678;23.380;2022-09-09T06:53:39;4.22;;;2.88;;
24273;SDS011;12392;42.678;23.380;2022-09-09T06:56:19;2.90;;;2.50;;
24273;SDS011;12392;42.678;23.380;2022-09-09T06:58:48;3.13;;;2.80;;
24273;SDS011;12392;42.678;23.380;2022-09-09T07:01:19;6.32;;;3.42;;
24273;SDS011;12392;42.678;23.380;2022-09-09T07:03:47;2.75;;;2.47;;
24273;SDS011;12392;42.678;23.380;2022-09-09T07:06:15;3.00;;;2.53;;
24273;SDS011;12392;42.678;23.380;2022-09-09T07:08:43;3.47;;;2.55;;
24273;SDS011;12392;42.678;23.380;2022-09-09T07:11:13;2.97;;;2.67;;
24273;SDS011;12392;42.678;23.380;2022-09-09T07:13:38;2.78;;;2.58;;
24273;SDS011;12392;42.678;23.380;2022-09-09T07:16:08;2.80;;;2.50;;
24273;SDS011;12392;42.678;23.380;2022-09-09T07:18:38;6.00;;;2.58;;
24273;SDS011;12392;42.678;23.380;2022-09-09T07:21:05;3.30;;;2.97;;
24273;SDS011;12392;42.678;23.380;2022-09-09T07:23:31;3.13;;;2.80;;
24273;SDS011;12392;42.678;23.380;2022-09-09T07:25:58;3.83;;;3.22;;
24273;SDS011;12392;42.678;23.380;2022-09-09T07:28:24;5.63;;;2.78;;
24273;SDS011;12392;42.678;23.380;2022-09-09T07:30:57;4.10;;;2.60;;
24273;SDS011;12392;42.678;23.380;2022-09-09T07:33:26;3.13;;;2.80;;
24273;SDS011;12392;42.678;23.380;2022-09-09T07:35:52;3.15;;;2.70;;
24273;SDS011;12392;42.678;23.380;2022-09-09T07:38:18;3.25;;;2.40;;
24273;SDS011;12392;42.678;23.380;2022-09-09T07:40:45;3.78;;;2.90;;
24273;SDS011;12392;42.678;23.380;2022-09-09T07:43:11;4.85;;;2.80;;
24273;SDS011;12392;42.678;23.380;2022-09-09T07:45:37;3.30;;;2.58;;
24273;SDS011;12392;42.678;23.380;2022-09-09T07:48:03;2.63;;;2.42;;
24273;SDS011;12392;42.678;23.380;2022-09-09T07:50:29;2.65;;;2.45;;
24273;SDS011;12392;42.678;23.380;2022-09-09T07:52:55;4.82;;;3.20;;
24273;SDS011;12392;42.678;23.380;2022-09-09T07:55:21;4.38;;;2.97;;
24273;SDS011;12392;42.678;23.380;2022-09-09T07:57:52;3.67;;;2.38;;
24273;SDS011;12392;42.678;23.380;2022-09-09T08:00:18;5.90;;;2.70;;
24273;SDS011;12392;42.678;23.380;2022-09-09T08:02:44;4.40;;;3.03;;
24273;SDS011;12392;42.678;23.380;2022-09-09T08:05:11;15.95;;;2.60;;
24273;SDS011;12392;42.678;23.380;2022-09-09T08:07:37;6.03;;;2.90;;
24273;SDS011;12392;42.678;23.380;2022-09-09T08:10:03;2.63;;;2.42;;
24273;SDS011;12392;42.678;23.380;2022-09-09T08:12:29;2.63;;;2.42;;
24273;SDS011;12392;42.678;23.380;2022-09-09T08:14:55;3.92;;;2.72;;
24273;SDS011;12392;42.678;23.380;2022-09-09T08:17:21;3.03;;;2.70;;
24273;SDS011;12392;42.678;23.380;2022-09-09T08:19:46;3.92;;;2.72;;
24273;SDS011;12392;42.678;23.380;2022-09-09T08:22:12;5.72;;;2.75;;
24273;SDS011;12392;42.678;23.380;2022-09-09T08:24:39;2.78;;;2.50;;
24273;SDS011;12392;42.678;23.380;2022-09-09T08:27:06;3.38;;;2.58;;
24273;SDS011;12392;42.678;23.380;2022-09-09T08:29:31;4.60;;;3.05;;
24273;SDS011;12392;42.678;23.380;2022-09-09T08:31:57;3.67;;;2.78;;
24273;SDS011;12392;42.678;23.380;2022-09-09T08:34:25;4.30;;;2.53;;
24273;SDS011;12392;42.678;23.380;2022-09-09T08:36:52;3.50;;;3.20;;
24273;SDS011;12392;42.678;23.380;2022-09-09T08:39:19;5.03;;;3.00;;
24273;SDS011;12392;42.678;23.380;2022-09-09T08:52:10;8.15;;;3.35;;
24273;SDS011;12392;42.678;23.380;2022-09-09T08:57:07;5.30;;;3.10;;
24273;SDS011;12392;42.678;23.380;2022-09-09T08:59:39;6.25;;;3.55;;
24273;SDS011;12392;42.678;23.380;2022-09-09T09:10:23;4.75;;;2.50;;
24273;SDS011;12392;42.678;23.380;2022-09-09T09:13:04;4.32;;;3.08;;
24273;SDS011;12392;42.678;23.380;2022-09-09T09:15:38;5.05;;;3.08;;
24273;SDS011;12392;42.678;23.380;2022-09-09T09:18:05;8.90;;;3.10;;
24273;SDS011;12392;42.678;23.380;2022-09-09T09:24:18;3.20;;;2.90;;
24273;SDS011;12392;42.678;23.380;2022-09-09T09:26:25;4.63;;;3.28;;
24273;SDS011;12392;42.678;23.380;2022-09-09T09:29:01;3.55;;;2.63;;
24273;SDS011;12392;42.678;23.380;2022-09-09T09:31:34;3.90;;;2.92;;
24273;SDS011;12392;42.678;23.380;2022-09-09T09:34:00;4.63;;;2.88;;
24273;SDS011;12392;42.678;23.380;2022-09-09T09:36:39;3.35;;;2.72;;
24273;SDS011;12392;42.678;23.380;2022-09-09T09:39:07;3.40;;;3.10;;
24273;SDS011;12392;42.678;23.380;2022-09-09T09:44:04;3.65;;;3.35;;
24273;SDS011;12392;42.678;23.380;2022-09-09T09:46:32;4.45;;;2.88;;
24273;SDS011;12392;42.678;23.380;2022-09-09T09:49:00;3.35;;;2.72;;
24273;SDS011;12392;42.678;23.380;2022-09-09T09:51:36;3.40;;;3.10;;
24273;SDS011;12392;42.678;23.380;2022-09-09T09:54:03;3.05;;;2.75;;
24273;SDS011;12392;42.678;23.380;2022-09-09T09:56:40;3.55;;;2.70;;
24273;SDS011;12392;42.678;23.380;2022-09-09T09:59:18;3.67;;;3.15;;
24273;SDS011;12392;42.678;23.380;2022-09-09T10:08:05;4.00;;;3.00;;
24273;SDS011;12392;42.678;23.380;2022-09-09T10:10:37;6.88;;;3.35;;
24273;SDS011;12392;42.678;23.380;2022-09-09T10:19:05;3.58;;;3.20;;
24273;SDS011;12392;42.678;23.380;2022-09-09T10:35:36;4.80;;;2.92;;
24273;SDS011;12392;42.678;23.380;2022-09-09T10:43:38;3.58;;;3.25;;
24273;SDS011;12392;42.678;23.380;2022-09-09T10:54:29;4.82;;;2.90;;
24273;SDS011;12392;42.678;23.380;2022-09-09T10:57:52;3.30;;;2.80;;
24273;SDS011;12392;42.678;23.380;2022-09-09T11:00:21;6.38;;;3.35;;
24273;SDS011;12392;42.678;23.380;2022-09-09T11:03:12;5.90;;;3.42;;
24273;SDS011;12392;42.678;23.380;2022-09-09T11:05:49;7.80;;;3.60;;
24273;SDS011;12392;42.678;23.380;2022-09-09T11:08:18;3.70;;;3.33;;
24273;SDS011;12392;42.678;23.380;2022-09-09T11:13:24;5.93;;;4.00;;
24273;SDS011;12392;42.678;23.380;2022-09-09T11:15:55;9.57;;;4.30;;
24273;SDS011;12392;42.678;23.380;2022-09-09T11:18:35;5.28;;;3.50;;
24273;SDS011;12392;42.678;23.380;2022-09-09T11:21:12;4.50;;;3.90;;
24273;SDS011;12392;42.678;23.380;2022-09-09T11:23:49;4.25;;;3.50;;
24273;SDS011;12392;42.678;23.380;2022-09-09T11:26:38;6.22;;;3.83;;
24273;SDS011;12392;42.678;23.380;2022-09-09T11:29:22;6.35;;;4.03;;
24273;SDS011;12392;42.678;23.380;2022-09-09T11:40:38;4.00;;;3.60;;
24273;SDS011;12392;42.678;23.380;2022-09-09T11:45:33;5.32;;;3.97;;
24273;SDS011;12392;42.678;23.380;2022-09-09T11:48:01;4.68;;;4.10;;
24273;SDS011;12392;42.678;23.380;2022-09-09T11:50:32;5.45;;;4.28;;
24273;SDS011;12392;42.678;23.380;2022-09-09T11:53:23;4.70;;;4.20;;
24273;SDS011;12392;42.678;23.380;2022-09-09T11:58:36;5.15;;;3.83;;
24273;SDS011;12392;42.678;23.380;2022-09-09T12:01:26;5.35;;;4.10;;
24273;SDS011;12392;42.678;23.380;2022-09-09T12:06:46;5.68;;;4.57;;
24273;SDS011;12392;42.678;23.380;2022-09-09T12:09:23;7.45;;;4.20;;
24273;SDS011;12392;42.678;23.380;2022-09-09T12:19:40;6.28;;;4.45;;
24273;SDS011;12392;42.678;23.380;2022-09-09T12:22:20;5.85;;;4.15;;
24273;SDS011;12392;42.678;23.380;2022-09-09T12:25:02;7.53;;;5.03;;
24273;SDS011;12392;42.678;23.380;2022-09-09T12:27:58;5.15;;;4.32;;
24273;SDS011;12392;42.678;23.380;2022-09-09T12:30:35;6.35;;;4.80;;
24273;SDS011;12392;42.678;23.380;2022-09-09T12:33:10;6.88;;;4.72;;
24273;SDS011;12392;42.678;23.380;2022-09-09T12:35:38;5.05;;;4.55;;
24273;SDS011;12392;42.678;23.380;2022-09-09T12:38:04;5.82;;;4.72;;
24273;SDS011;12392;42.678;23.380;2022-09-09T12:40:35;8.48;;;5.25;;
24273;SDS011;12392;42.678;23.380;2022-09-09T12:43:01;5.22;;;4.53;;
24273;SDS011;12392;42.678;23.380;2022-09-09T12:45:44;5.40;;;3.88;;
24273;SDS011;12392;42.678;23.380;2022-09-09T12:48:10;7.90;;;4.88;;
24273;SDS011;12392;42.678;23.380;2022-09-09T12:50:48;6.57;;;5.30;;
24273;SDS011;12392;42.678;23.380;2022-09-09T12:53:20;4.32;;;3.90;;
24273;SDS011;12392;42.678;23.380;2022-09-09T12:56:08;5.55;;;4.68;;
24273;SDS011;12392;42.678;23.380;2022-09-09T12:58:44;5.20;;;4.68;;
24273;SDS011;12392;42.678;23.380;2022-09-09T13:01:25;5.18;;;4.68;;
24273;SDS011;12392;42.678;23.380;2022-09-09T13:03:58;10.27;;;4.72;;
24273;SDS011;12392;42.678;23.380;2022-09-09T13:06:26;5.15;;;4.22;;
24273;SDS011;12392;42.678;23.380;2022-09-09T13:08:56;6.75;;;4.00;;
24273;SDS011;12392;42.678;23.380;2022-09-09T13:14:18;8.63;;;4.90;;
24273;SDS011;12392;42.678;23.380;2022-09-09T13:16:57;5.90;;;4.35;;
24273;SDS011;12392;42.678;23.380;2022-09-09T13:19:26;7.07;;;4.32;;
24273;SDS011;12392;42.678;23.380;2022-09-09T13:21:56;5.22;;;4.55;;
24273;SDS011;12392;42.678;23.380;2022-09-09T13:24:27;5.25;;;4.55;;
24273;SDS011;12392;42.678;23.380;2022-09-09T13:27:03;5.80;;;4.63;;
24273;SDS011;12392;42.678;23.380;2022-09-09T13:29:31;6.07;;;5.07;;
24273;SDS011;12392;42.678;23.380;2022-09-09T13:32:07;5.55;;;4.10;;
24273;SDS011;12392;42.678;23.380;2022-09-09T13:34:49;5.50;;;4.40;;
24273;SDS011;12392;42.678;23.380;2022-09-09T13:39:59;5.35;;;4.43;;
24273;SDS011;12392;42.678;23.380;2022-09-09T13:42:27;5.88;;;4.70;;
24273;SDS011;12392;42.678;23.380;2022-09-09T13:44:57;10.45;;;5.25;;
24273;SDS011;12392;42.678;23.380;2022-09-09T13:47:42;6.45;;;4.50;;
24273;SDS011;12392;42.678;23.380;2022-09-09T13:50:42;6.25;;;5.10;;
24273;SDS011;12392;42.678;23.380;2022-09-09T13:53:01;6.53;;;5.13;;
24273;SDS011;12392;42.678;23.380;2022-09-09T13:55:27;7.82;;;4.95;;
24273;SDS011;12392;42.678;23.380;2022-09-09T13:57:54;6.75;;;4.47;;
24273;SDS011;12392;42.678;23.380;2022-09-09T14:00:22;5.68;;;4.28;;
24273;SDS011;12392;42.678;23.380;2022-09-09T14:02:49;7.28;;;4.70;;
24273;SDS011;12392;42.678;23.380;2022-09-09T14:05:15;4.43;;;4.03;;
24273;SDS011;12392;42.678;23.380;2022-09-09T14:07:42;5.30;;;4.65;;
24273;SDS011;12392;42.678;23.380;2022-09-09T14:10:09;9.02;;;3.97;;
24273;SDS011;12392;42.678;23.380;2022-09-09T14:12:35;5.72;;;4.50;;
24273;SDS011;12392;42.678;23.380;2022-09-09T14:15:04;5.00;;;4.40;;
24273;SDS011;12392;42.678;23.380;2022-09-09T14:17:32;8.57;;;4.63;;
24273;SDS011;12392;42.678;23.380;2022-09-09T14:19:58;8.50;;;4.55;;
24273;SDS011;12392;42.678;23.380;2022-09-09T14:22:25;5.45;;;4.18;;
24273;SDS011;12392;42.678;23.380;2022-09-09T14:24:50;7.40;;;4.63;;
24273;SDS011;12392;42.678;23.380;2022-09-09T14:27:16;5.97;;;4.32;;
24273;SDS011;12392;42.678;23.380;2022-09-09T14:29:43;5.68;;;4.65;;
24273;SDS011;12392;42.678;23.380;2022-09-09T14:32:10;6.65;;;4.25;;
24273;SDS011;12392;42.678;23.380;2022-09-09T14:34:36;4.90;;;3.85;;
24273;SDS011;12392;42.678;23.380;2022-09-09T14:37:03;6.38;;;4.25;;
24273;SDS011;12392;42.678;23.380;2022-09-09T14:39:29;4.82;;;3.65;;
24273;SDS011;12392;42.678;23.380;2022-09-09T14:41:54;7.80;;;3.67;;
24273;SDS011;12392;42.678;23.380;2022-09-09T14:44:20;5.70;;;4.47;;
24273;SDS011;12392;42.678;23.380;2022-09-09T14:46:46;5.13;;;4.25;;
24273;SDS011;12392;42.678;23.380;2022-09-09T14:49:15;6.07;;;4.10;;
24273;SDS011;12392;42.678;23.380;2022-09-09T14:51:40;4.20;;;3.80;;
24273;SDS011;12392;42.678;23.380;2022-09-09T14:54:06;5.53;;;3.97;;
24273;SDS011;12392;42.678;23.380;2022-09-09T14:56:32;4.75;;;4.30;;
24273;SDS011;12392;42.678;23.380;2022-09-09T14:59:01;4.63;;;4.22;;
24273;SDS011;12392;42.678;23.380;2022-09-09T15:01:27;5.38;;;4.13;;
24273;SDS011;12392;42.678;23.380;2022-09-09T15:06:27;6.85;;;4.88;;
24273;SDS011;12392;42.678;23.380;2022-09-09T15:08:55;4.82;;;4.07;;
24273;SDS011;12392;42.678;23.380;2022-09-09T15:11:26;4.20;;;3.80;;
24273;SDS011;12392;42.678;23.380;2022-09-09T15:13:53;5.90;;;4.15;;
24273;SDS011;12392;42.678;23.380;2022-09-09T15:16:20;4.78;;;4.20;;
24273;SDS011;12392;42.678;23.380;2022-09-09T15:18:50;6.43;;;3.92;;
24273;SDS011;12392;42.678;23.380;2022-09-09T15:21:21;5.22;;;4.03;;
24273;SDS011;12392;42.678;23.380;2022-09-09T15:23:48;4.45;;;3.58;;
24273;SDS011;12392;42.678;23.380;2022-09-09T15:26:15;6.53;;;4.05;;
24273;SDS011;12392;42.678;23.380;2022-09-09T15:28:42;6.97;;;3.53;;
24273;SDS011;12392;42.678;23.380;2022-09-09T15:31:16;5.18;;;4.20;;
24273;SDS011;12392;42.678;23.380;2022-09-09T15:36:23;8.32;;;3.78;;
24273;SDS011;12392;42.678;23.380;2022-09-09T15:38:50;5.25;;;3.80;;
24273;SDS011;12392;42.678;23.380;2022-09-09T15:41:16;5.53;;;4.10;;
24273;SDS011;12392;42.678;23.380;2022-09-09T15:43:46;4.97;;;3.83;;
24273;SDS011;12392;42.678;23.380;2022-09-09T15:46:25;4.82;;;3.45;;
24273;SDS011;12392;42.678;23.380;2022-09-09T15:49:05;5.43;;;3.67;;
24273;SDS011;12392;42.678;23.380;2022-09-09T15:51:34;4.45;;;3.60;;
24273;SDS011;12392;42.678;23.380;2022-09-09T15:54:00;5.50;;;3.42;;
24273;SDS011;12392;42.678;23.380;2022-09-09T15:56:27;4.65;;;3.63;;
24273;SDS011;12392;42.678;23.380;2022-09-09T15:58:55;5.05;;;4.32;;
24273;SDS011;12392;42.678;23.380;2022-09-09T16:01:22;5.43;;;3.35;;
24273;SDS011;12392;42.678;23.380;2022-09-09T16:03:47;5.07;;;3.72;;
24273;SDS011;12392;42.678;23.380;2022-09-09T16:06:15;8.90;;;4.03;;
24273;SDS011;12392;42.678;23.380;2022-09-09T16:08:45;5.60;;;3.88;;
24273;SDS011;12392;42.678;23.380;2022-09-09T16:11:20;4.15;;;3.45;;
24273;SDS011;12392;42.678;23.380;2022-09-09T16:13:49;6.82;;;4.50;;
24273;SDS011;12392;42.678;23.380;2022-09-09T16:16:17;5.60;;;3.17;;
24273;SDS011;12392;42.678;23.380;2022-09-09T16:18:48;5.25;;;3.55;;
24273;SDS011;12392;42.678;23.380;2022-09-09T16:21:18;3.30;;;3.00;;
24273;SDS011;12392;42.678;23.380;2022-09-09T16:23:45;5.38;;;3.25;;
24273;SDS011;12392;42.678;23.380;2022-09-09T16:26:12;6.05;;;3.45;;
24273;SDS011;12392;42.678;23.380;2022-09-09T16:28:39;6.40;;;3.05;;
24273;SDS011;12392;42.678;23.380;2022-09-09T16:31:09;5.68;;;3.28;;
24273;SDS011;12392;42.678;23.380;2022-09-09T16:33:36;6.10;;;4.50;;
24273;SDS011;12392;42.678;23.380;2022-09-09T16:36:06;6.30;;;3.80;;
24273;SDS011;12392;42.678;23.380;2022-09-09T16:38:32;5.38;;;3.72;;
24273;SDS011;12392;42.678;23.380;2022-09-09T16:40:59;4.10;;;3.28;;
24273;SDS011;12392;42.678;23.380;2022-09-09T16:43:25;5.45;;;3.88;;
24273;SDS011;12392;42.678;23.380;2022-09-09T16:45:51;5.13;;;3.75;;
24273;SDS011;12392;42.678;23.380;2022-09-09T16:48:16;6.35;;;4.00;;
24273;SDS011;12392;42.678;23.380;2022-09-09T16:50:42;6.55;;;3.50;;
24273;SDS011;12392;42.678;23.380;2022-09-09T16:53:07;5.45;;;3.70;;
24273;SDS011;12392;42.678;23.380;2022-09-09T16:55:37;5.93;;;4.20;;
24273;SDS011;12392;42.678;23.380;2022-09-09T16:58:07;6.93;;;3.70;;
24273;SDS011;12392;42.678;23.380;2022-09-09T17:00:33;4.82;;;3.50;;
24273;SDS011;12392;42.678;23.380;2022-09-09T17:03:00;6.60;;;4.28;;
24273;SDS011;12392;42.678;23.380;2022-09-09T17:05:25;8.35;;;4.07;;
24273;SDS011;12392;42.678;23.380;2022-09-09T17:07:51;11.73;;;4.78;;
24273;SDS011;12392;42.678;23.380;2022-09-09T17:10:17;11.68;;;5.03;;
24273;SDS011;12392;42.678;23.380;2022-09-09T17:12:42;8.23;;;4.57;;
24273;SDS011;12392;42.678;23.380;2022-09-09T17:15:08;5.22;;;4.25;;
24273;SDS011;12392;42.678;23.380;2022-09-09T17:17:35;6.72;;;3.78;;
24273;SDS011;12392;42.678;23.380;2022-09-09T17:20:00;5.45;;;3.55;;
24273;SDS011;12392;42.678;23.380;2022-09-09T17:22:27;6.20;;;3.92;;
24273;SDS011;12392;42.678;23.380;2022-09-09T17:24:53;7.05;;;4.07;;